AirNav   Phillips 66 Aviation Fuel
 
 446 users online  

KKIC Mesa Del Rey Airport
King City, California, USA

GOING TO KING CITY?


FAA INFORMATION EFFECTIVE 29 MARCH 2018

Location

FAA Identifier: KIC
Lat/Long: 36-13-42.8000N / 121-07-16.7000W
36-13.713333N / 121-07.278333W
36.2285556 / -121.1213056
(estimated)
Elevation: 374 ft. / 114.0 m (surveyed)
Variation: 15E (1985)
From city: 1 mile NE of KING CITY, CA
Time zone: UTC -7 (UTC -8 during Standard Time)
Zip code: 93930

Airport Operations

Airport use: Open to the public
Activation date: 04/1940
Control tower: no
ARTCC: OAKLAND CENTER
FSS: OAKLAND FLIGHT SERVICE STATION
NOTAMs facility: OAK (NOTAM-D service available)
Attendance: MON-FRI 0800-1700
Pattern altitude: 1174 ft. MSL
Wind indicator: lighted
Segmented circle: yes
Lights: SS-SR
Beacon: white-green (lighted land airport)
Operates sunset to sunrise.

Airport Communications

CTAF: 122.9
WX AWOS-AV at 09CA (1.5 nm S): 120.800 (831-386-7456)

Nearby radio navigation aids

VOR radial/distance  VOR name  Freq  Var
ROMr267/(22.7)PRIEST VOR110.0016E
BSRr068/25.4BIG SUR VORTAC114.0016E
PXNr194/33.6PANOCHE VORTAC112.6016E
SNSr121/35.0SALINAS VORTAC117.3017E

 
NDB name  Hdg/Dist  Freq  Var  ID
HUNTER LIGGETT357/16.420915EHGT .... --. -
CHUALAR117/23.226316EUAD ..- .- -..

Airport Services

Fuel available: 100LL JET-A
FUEL AVBL 24 HRS.
Parking: tiedowns
Airframe service: MAJOR
Powerplant service: MAJOR
Bottled oxygen: NONE
Bulk oxygen: NONE

Runway Information

Runway 11/29

Dimensions: 4479 x 100 ft. / 1365 x 30 m
Surface: asphalt, in fair condition
Weight bearing capacity: 
Single wheel: 12.0
Runway edge lights: medium intensity
RUNWAY 11  RUNWAY 29
Latitude: 36-13.952750N36-13.472885N
Longitude: 121-07.624580W121-06.932290W
Elevation: 369.4 ft.374.0 ft.
Gradient: 0.1%0.1%
Traffic pattern: leftleft
Markings: basic, in good conditionbasic, in good condition
Visual slope indicator: 2-light PAPI on left (3.00 degrees glide path)
Runway end identifier lights: noyes
Touchdown point: yes, no lightsyes, no lights
Obstructions: 4 ft. berm, 280 ft. from runway, 20:1 slope to clear7 ft. road, 400 ft. from runway, 28:1 slope to clear

Airport Ownership and Management from official FAA records

Ownership: Publicly-owned
Owner: CITY OF KING CITY
212 SOUTH VANDERHURST AVE
KING CITY, CA 93930-2922
Phone 831-386-5925
Manager: STEVEN ADAMS
212 SOUTH VANDERHURST AVE
KING CITY, CA 93930-2922
Phone (831) 386-5925
ARPT PHONE 831-385-6575 - KING CITY AVN.

Airport Operational Statistics

Aircraft based on the field: 18
Single engine airplanes: 15
Multi engine airplanes: 2
Helicopters: 1
    
Aircraft operations: avg 22/day *
57% local general aviation
43% transient general aviation
* for 12-month period ending 27 September 2017

Additional Remarks

FOR TOLL FREE PILOT WEATHER BRIEF OAKLAND FSS 1-800-WX-BRIEF.
INTENSIVE AEROBATIC ACTIVITY INVOF AIRPORT.

Instrument Procedures

There are no published instrument procedures at KKIC.

Some nearby airports with instrument procedures:

KHGT - Tusi Army Heliport (Hunter Liggett) (15 nm S)
KSNS - Salinas Municipal Airport (35 nm NW)
KMRY - Monterey Regional Airport (41 nm NW)
KPRB - Paso Robles Municipal Airport (41 nm SE)
KOAR - Marina Municipal Airport (41 nm NW)
 
Loc | Ops | Rwys | IFR | FBO | Links
Com | Nav | Svcs | Stats | Notes

AirNav Hotels Sweepstakes
 
Area around KKIC (Mesa Del Rey Airport)
 
Road maps at: MapQuest Bing Google
 
Aerial photo
WARNING: Photo may not be current or correct
Aerial photo of KKIC (Mesa Del Rey Airport)
Do you have a better or more recent aerial photo of Mesa Del Rey Airport that you would like to share? If so, please send us your photo.

 
Sectional chart

 
Airport distance calculator
Flying to Mesa Del Rey Airport? Find the distance to fly.

From to KKIC

Sunrise and sunset
Times for 20-Apr-2018
 Local
(UTC-7)
 Zulu
(UTC)
Morning civil twilight05:5912:59
Sunrise06:2513:25
Sunset19:4102:41
Evening civil twilight20:0803:08

Current date and time
Zulu (UTC)  21-Apr-2018 05:39:34
Local (UTC-7)  20-Apr-2018 22:39:34
 
METAR
KSNS 
35nm NW 
210453Z AUTO 33006KT 9SM CLR 12/09 A3019 RMK AO2 SLP232 T01220094
KOAR 
41nm NW 
134.025 831-384-2967
No observation available
KMRY 
41nm NW 
210454Z AUTO 19006KT 9SM OVC009 12/09 A3021 RMK AO2 SLP242 T01170094
KPRB 
41nm SE 
210453Z AUTO 32006KT 10SM CLR 15/07 A3015 RMK AO2 SLP207 T01500067
KCVH 
42nm N 
210515Z AUTO 00000KT 10SM CLR 11/09 A3019 RMK A01
TAF
KSNS 
35nm NW 
201720Z 2018/2118 27008KT P6SM SKC FM202100 27013KT P6SM FEW020 FM210500 29005KT P6SM FEW015 FM210800 VRB03KT P6SM FEW012 FM211200 00000KT P6SM FEW012
KMRY 
41nm NW 
210325Z 2103/2124 28011KT P6SM SCT010 TEMPO 2103/2104 OVC009 FM210400 21005KT P6SM OVC007 FM211600 30005KT P6SM SCT018 FM212000 31008KT P6SM FEW025
KPRB 
41nm SE 
210126Z 2101/2124 33010KT P6SM SKC FM210400 VRB03KT P6SM SKC FM211600 34005KT P6SM SKC
NOTAMs
Click for the latest NOTAMs
NOTAMs are issued by the DoD/FAA and will open in a separate window not controlled by AirNav.

 

 
 

FBO, Fuel Providers, and Aircraft Ground Support

  
 Business Name 
 
 Contact 
 
 Services / Description 
 
Fuel Prices
 
Comments
  
Aviation Specialties Unlimited 831-385-6575 Aviation fuel, Aircraft parking (ramp or tiedown), Aircraft maintenance, Aircraft painting, Public telephone, Pilots lounge / snooze room, Restrooms

More info about Aviation Specialties Unlimited
Shell
100LL Jet A
SS $4.99 $3.70 
 Updated 15-Mar-2018
 
   write
SS=Self service
Update Fuel Prices
 

Would you like to see your business listed on this page?

 If your business provides an interesting product or service to pilots, flight crews, aircraft, or users of the Mesa Del Rey Airport, you should consider listing it here.  To start the listing process, click on the button below
 
Add a business
 

Other Pages about Mesa Del Rey Airport

Mesa Del Rey Airport
 
Update a link
 
Copyright © AirNav, LLC. All rights reserved. Privacy Policy  Contact